Time;durP1;ratioP1;P1;durP2;ratioP2;P2;SDS_P1;SDS_P2;PMS_P1;PMS_P2;Temp;Humidity;BMP_temperature;BMP_pressure;BME280_temperature;BME280_humidity;BME280_pressure;Samples;Min_cycle;Max_cycle;Signal;HPM_P1;HPM_P2
2022/03/21 06:17:12;;;;;;;29.25;18.12;;;;;;;1.18;50.42;102811.00;3948920;28;20109;-88
2022/03/21 06:24:12;;;;;;;32.58;18.35;;;;;;;1.50;48.99;102811.56;5277727;33;35346;-88
2022/03/21 06:27:15;;;;;;;36.45;18.73;;;;;;;1.58;48.68;102812.16;5318595;28;35270;-88
2022/03/21 06:30:21;;;;;;;29.37;17.65;;;;;;;1.73;48.42;102818.66;5313355;28;32621;-88
2022/03/21 07:02:00;;;;;;;32.20;19.48;;;;;;;2.97;43.42;102820.53;879950;28;21157;-88
2022/03/21 07:21:47;;;;;;;32.03;15.30;;;;;;;4.08;40.38;102820.59;3714703;28;20136;-89
2022/03/21 07:24:58;;;;;;;29.35;15.05;;;;;;;4.43;40.07;102822.44;5248454;33;20074;-89
2022/03/21 07:28:01;;;;;;;27.62;14.82;;;;;;;4.72;41.26;102832.47;5252003;33;33909;-89
2022/03/21 07:31:05;;;;;;;25.30;14.02;;;;;;;5.10;40.11;102831.41;5282097;28;34130;-89
2022/03/21 07:34:08;;;;;;;27.13;13.62;;;;;;;5.11;40.14;102828.66;5303505;28;32360;-89
2022/03/21 07:37:11;;;;;;;23.67;13.20;;;;;;;5.11;40.53;102833.13;5295250;33;34550;-89
2022/03/21 07:40:15;;;;;;;26.52;14.70;;;;;;;5.32;39.65;102831.09;5292490;33;34262;-90
2022/03/21 07:43:18;;;;;;;25.98;13.18;;;;;;;5.51;38.30;102831.84;5303237;33;34350;-90
2022/03/21 07:58:36;;;;;;;25.02;11.88;;;;;;;5.98;37.54;102827.47;5318009;28;20134;-89
2022/03/21 08:01:39;;;;;;;26.05;13.10;;;;;;;6.17;36.73;102829.94;5312382;28;34068;-89
2022/03/21 08:04:43;;;;;;;24.77;12.70;;;;;;;6.47;36.63;102841.56;5310694;28;32747;-89
2022/03/21 08:07:52;;;;;;;24.15;12.10;;;;;;;6.52;35.30;102835.91;5308743;28;34703;-89
2022/03/21 08:10:56;;;;;;;22.40;12.32;;;;;;;6.87;34.22;102833.78;5304283;28;34560;-89
2022/03/21 08:18:05;;;;;;;24.92;13.35;;;;;;;6.84;33.79;102833.13;5334858;28;33817;-89
2022/03/21 08:21:09;;;;;;;23.87;12.95;;;;;;;7.07;33.90;102823.69;5320826;28;34482;-87
2022/03/21 08:24:12;;;;;;;26.35;14.00;;;;;;;7.44;32.82;102822.25;5316287;28;34904;-87
2022/03/21 08:27:15;;;;;;;21.92;14.38;;;;;;;7.49;33.26;102825.50;5322239;28;34174;-87
2022/03/21 08:30:18;;;;;;;25.30;12.60;;;;;;;7.69;32.61;102813.47;5312681;28;34304;-89
2022/03/21 08:33:21;;;;;;;28.12;13.55;;;;;;;7.75;32.10;102817.59;5272186;33;34323;-88
2022/03/21 08:36:24;;;;;;;29.40;14.50;;;;;;;7.60;32.13;102814.06;5268233;33;164706;-87
2022/03/21 08:39:27;;;;;;;29.52;14.77;;;;;;;7.82;32.31;102809.06;5269444;33;35471;-89
2022/03/21 08:43:04;;;;;;;26.50;14.50;;;;;;;7.84;31.56;102808.94;5286706;28;35293;31
2022/03/21 08:46:07;;;;;;;25.62;15.68;;;;;;;7.83;32.02;102805.41;5287214;28;33660;-90
2022/03/21 08:49:26;;;;;;;24.73;14.50;;;;;;;8.08;31.71;102798.44;5289172;28;34791;-88
2022/03/21 08:52:36;;;;;;;18.50;12.23;;;;;;;8.26;30.72;102799.87;5320247;28;32174;-88
2022/03/21 08:55:40;;;;;;;23.98;13.98;;;;;;;8.24;30.80;102796.44;5306243;28;34569;-87
2022/03/21 08:58:43;;;;;;;31.37;14.98;;;;;;;8.24;31.17;102785.69;5288790;33;33599;-87
2022/03/21 09:01:48;;;;;;;22.87;13.23;;;;;;;8.52;30.84;102790.09;5287478;33;34524;-86
2022/03/21 09:04:51;;;;;;;25.92;14.35;;;;;;;8.51;30.80;102787.50;5317726;28;34176;-86
2022/03/21 09:07:54;;;;;;;23.42;14.50;;;;;;;8.61;30.41;102778.72;5323735;28;33469;-87
2022/03/21 09:10:57;;;;;;;24.92;11.85;;;;;;;8.63;29.25;102767.88;5281157;33;34879;-87
2022/03/21 09:13:59;;;;;;;22.35;13.77;;;;;;;8.89;29.63;102768.72;5278821;33;34218;-86
2022/03/21 09:17:03;;;;;;;21.98;13.57;;;;;;;8.99;29.23;102772.50;5274419;33;34179;-86
2022/03/21 09:20:07;;;;;;;23.25;13.65;;;;;;;9.03;29.38;102765.91;5271859;33;33813;-87
2022/03/21 09:23:10;;;;;;;21.77;12.75;;;;;;;9.30;28.83;102759.53;5307150;28;33796;-87
2022/03/21 09:26:13;;;;;;;20.48;12.85;;;;;;;9.62;27.47;102756.31;5299053;33;33926;-87
2022/03/21 09:29:17;;;;;;;19.02;12.18;;;;;;;9.95;26.77;102755.66;5297528;33;33964;-87
2022/03/21 09:32:20;;;;;;;18.80;11.57;;;;;;;10.28;26.26;102756.78;5305829;33;33806;-88
2022/03/21 09:35:23;;;;;;;19.50;11.85;;;;;;;10.31;26.07;102754.72;5306761;33;34462;-88
2022/03/21 09:38:25;;;;;;;22.40;12.05;;;;;;;10.51;25.34;102755.03;5316063;33;34890;-88
2022/03/21 09:41:30;;;;;;;19.98;11.60;;;;;;;10.53;25.23;102755.75;5311824;33;34833;-88
2022/03/21 09:44:34;;;;;;;19.15;10.85;;;;;;;10.83;24.54;102747.12;5289878;33;33941;-86
2022/03/21 09:51:06;;;;;;;20.98;12.65;;;;;;;11.21;24.27;102745.91;5302331;33;34254;-89
2022/03/21 09:54:10;;;;;;;27.33;12.30;;;;;;;10.85;23.83;102755.91;5291257;33;33820;-91
2022/03/21 09:57:13;;;;;;;21.55;11.40;;;;;;;10.75;24.68;102744.16;5293770;33;33961;-91
2022/03/21 10:00:16;;;;;;;17.83;11.90;;;;;;;10.86;24.20;102746.88;5305992;33;34259;-91
2022/03/21 10:03:19;;;;;;;25.37;12.80;;;;;;;11.18;24.40;102740.75;5287321;33;34960;-88
2022/03/21 10:06:33;;;;;;;25.15;12.37;;;;;;;11.34;24.70;102736.66;5306101;33;35728;-87
2022/03/21 10:09:36;;;;;;;27.58;12.52;;;;;;;11.41;23.63;102728.06;5289635;33;34207;-87
2022/03/21 10:12:39;;;;;;;21.40;13.15;;;;;;;11.65;23.86;102726.06;5289909;33;34353;-87
2022/03/21 10:15:42;;;;;;;19.33;12.00;;;;;;;11.74;23.86;102714.50;5287195;33;34133;-87
2022/03/21 10:18:54;;;;;;;17.70;12.07;;;;;;;11.53;23.20;102710.91;5274970;33;34809;-87
2022/03/21 10:22:08;;;;;;;21.37;12.18;;;;;;;11.12;24.03;102710.59;5277976;33;34398;-87
2022/03/21 10:25:17;;;;;;;31.87;13.62;;;;;;;11.27;23.98;102699.56;5281809;33;34684;-87
2022/03/21 10:28:34;;;;;;;25.48;12.13;;;;;;;11.31;24.03;102706.41;5280190;33;33729;-87
2022/03/21 10:31:38;;;;;;;36.05;12.32;;;;;;;11.63;23.71;102711.84;5280000;33;34589;-87
2022/03/21 10:34:42;;;;;;;19.95;11.30;;;;;;;11.89;24.04;102708.84;5287766;33;34093;-87
2022/03/21 10:37:49;;;;;;;20.88;10.90;;;;;;;12.11;22.48;102703.34;5279382;33;33784;-87
2022/03/21 10:40:52;;;;;;;19.58;10.77;;;;;;;12.22;23.51;102695.16;5275423;33;34001;-87
2022/03/21 10:43:55;;;;;;;23.70;11.52;;;;;;;12.17;23.29;102691.16;5282198;33;34005;-87
2022/03/21 10:47:05;;;;;;;20.05;11.70;;;;;;;12.37;22.70;102674.09;5286144;33;33514;-87
2022/03/21 10:50:08;;;;;;;19.08;11.85;;;;;;;12.61;23.18;102675.62;5287542;33;33673;-87
2022/03/21 10:53:21;;;;;;;23.95;12.32;;;;;;;12.82;22.48;102662.06;5285203;33;34611;-87
2022/03/21 10:56:24;;;;;;;18.90;11.98;;;;;;;13.06;22.27;102667.13;5288947;33;34585;-87
2022/03/21 10:59:27;;;;;;;15.52;11.38;;;;;;;12.96;21.87;102668.94;5290026;33;34676;-87
2022/03/21 11:02:30;;;;;;;19.67;11.73;;;;;;;12.66;22.32;102662.56;5289216;33;34405;-87
2022/03/21 11:05:36;;;;;;;16.95;11.20;;;;;;;12.69;22.32;102656.87;5274594;33;33934;-86
2022/03/21 11:08:39;;;;;;;17.73;11.12;;;;;;;13.02;22.38;102654.88;5277673;33;34463;-87
2022/03/21 11:11:44;;;;;;;18.92;12.40;;;;;;;13.32;21.09;102649.41;5274298;33;32374;-87
2022/03/21 11:14:48;;;;;;;18.55;11.68;;;;;;;13.90;21.25;102647.72;5279751;33;34063;-89
2022/03/21 11:17:51;;;;;;;19.52;11.88;;;;;;;14.03;20.35;102645.56;5291845;33;33909;-87
2022/03/21 11:20:56;;;;;;;19.02;11.30;;;;;;;14.34;20.49;102631.81;5281904;33;34712;-87
2022/03/21 11:24:00;;;;;;;18.02;12.15;;;;;;;14.73;19.33;102630.69;5281424;33;34112;-86
2022/03/21 11:27:12;;;;;;;16.83;11.32;;;;;;;14.73;20.69;102621.69;5289336;33;33944;-87
2022/03/21 11:30:21;;;;;;;16.55;10.93;;;;;;;14.62;19.35;102620.03;5280957;33;34966;-88
2022/03/21 11:33:38;;;;;;;13.75;9.27;;;;;;;15.62;18.72;102620.97;5273302;33;34060;-88
2022/03/21 11:36:57;;;;;;;15.00;9.02;;;;;;;16.30;17.37;102612.16;5274810;33;34009;-88
2022/03/21 11:40:19;;;;;;;;;;;;;;;16.47;17.74;102602.22;5280273;33;34262;-87
2022/03/21 11:43:21;;;;;;;12.37;7.78;;;;;;;17.04;16.71;102604.34;5287092;33;34014;-87
2022/03/21 11:46:29;;;;;;;11.45;7.55;;;;;;;17.96;16.21;102602.38;5290677;33;34988;-87
2022/03/21 11:49:32;;;;;;;14.80;8.35;;;;;;;18.82;15.56;102590.75;5262170;33;33744;-87
2022/03/21 11:53:07;;;;;;;11.12;7.43;;;;;;;18.92;15.05;102598.69;5283177;33;34120;-87
2022/03/21 11:56:18;;;;;;;11.48;7.65;;;;;;;19.42;14.85;102600.97;5280793;33;33939;-87
2022/03/21 11:59:33;;;;;;;10.20;7.57;;;;;;;19.17;14.51;102583.88;5279556;33;34324;-87
2022/03/21 12:02:39;;;;;;;11.30;7.78;;;;;;;20.31;13.86;102583.91;5279781;33;35331;-89
2022/03/21 12:05:50;;;;;;;16.10;8.15;;;;;;;21.90;13.41;102573.91;5278685;33;35296;-91
2022/03/21 12:08:59;;;;;;;14.05;7.65;;;;;;;21.78;12.67;102567.28;5271946;33;33806;-88
2022/03/21 12:12:04;;;;;;;14.02;8.05;;;;;;;22.45;12.33;102576.81;5279843;33;34821;-87
2022/03/21 12:15:15;;;;;;;11.02;7.87;;;;;;;22.91;12.38;102556.94;5285407;33;35540;-87
2022/03/21 12:18:19;;;;;;;12.52;7.75;;;;;;;22.97;12.27;102551.50;5281864;33;34735;-87
2022/03/21 12:21:22;;;;;;;11.18;7.78;;;;;;;24.44;11.81;102539.41;5280920;33;35693;-87
2022/03/21 12:24:26;;;;;;;13.57;7.55;;;;;;;25.21;11.01;102535.81;5282811;33;33887;-87
2022/03/21 12:27:37;;;;;;;10.38;7.43;;;;;;;24.50;10.87;102540.44;5283625;33;33548;-87
2022/03/21 12:30:41;;;;;;;13.60;8.05;;;;;;;24.33;11.09;102522.69;5284387;33;34247;-87
2022/03/21 12:33:44;;;;;;;11.57;8.40;;;;;;;24.18;10.97;102512.78;5271793;33;33642;-87
2022/03/21 12:36:51;;;;;;;12.13;8.68;;;;;;;25.04;10.70;102510.69;5272971;33;34073;-87
2022/03/21 12:39:56;;;;;;;12.85;8.40;;;;;;;25.58;9.80;102503.72;5281922;33;34137;-87
2022/03/21 12:43:01;;;;;;;14.68;8.73;;;;;;;23.95;11.14;102507.75;5282753;33;33935;-87
2022/03/21 12:46:09;;;;;;;13.43;8.60;;;;;;;23.85;11.07;102506.53;5280395;33;34745;-87
2022/03/21 12:49:16;;;;;;;10.95;8.13;;;;;;;25.41;10.29;102497.91;5279248;33;35172;-87
2022/03/21 12:52:27;;;;;;;13.23;9.95;;;;;;;26.53;9.75;102494.19;5283700;33;33780;-87
2022/03/21 12:55:30;;;;;;;16.90;9.63;;;;;;;26.79;9.56;102488.28;5275509;33;33401;-87
2022/03/21 12:58:34;;;;;;;14.07;9.70;;;;;;;26.53;9.66;102485.91;5280239;33;34352;-87
2022/03/21 13:01:38;;;;;;;13.88;9.52;;;;;;;27.41;9.09;102484.34;5280541;33;33890;-87
2022/03/21 13:12:07;;;;;;;9.73;7.35;;;;;;;26.44;9.16;102482.59;5286796;33;33711;-87
2022/03/21 13:15:11;;;;;;;12.05;7.80;;;;;;;26.62;8.86;102485.38;5281621;33;34822;-88
2022/03/21 13:18:14;;;;;;;9.73;7.60;;;;;;;27.68;8.80;102479.22;5271158;33;34593;-88
2022/03/21 13:21:19;;;;;;;11.65;7.97;;;;;;;27.34;8.51;102473.41;5280874;33;33514;-88
2022/03/21 13:24:39;;;;;;;12.15;7.50;;;;;;;27.42;8.69;102473.06;5270887;33;34181;-88
2022/03/21 13:27:42;;;;;;;11.73;7.65;;;;;;;29.45;7.58;102457.16;5274279;33;33665;-87
2022/03/21 13:30:57;;;;;;;11.95;7.45;;;;;;;27.98;8.24;102460.53;5281477;33;33546;-87
2022/03/21 13:34:08;;;;;;;9.25;7.20;;;;;;;28.48;8.38;102456.31;5275444;33;34387;-87
2022/03/21 13:37:19;;;;;;;9.85;7.30;;;;;;;29.25;7.63;102449.38;5278908;33;34094;-87
2022/03/21 13:40:27;;;;;;;9.20;6.85;;;;;;;29.58;7.63;102452.12;5281708;33;33883;-87
2022/03/21 13:43:32;;;;;;;8.20;6.80;;;;;;;27.57;7.98;102454.06;5276858;33;33950;-87
2022/03/21 13:46:36;;;;;;;10.63;6.97;;;;;;;27.67;8.09;102444.28;5274682;33;34066;-87
2022/03/21 13:49:42;;;;;;;9.50;6.68;;;;;;;28.73;7.67;102441.25;5273738;33;34851;-87
2022/03/21 13:52:56;;;;;;;7.95;6.85;;;;;;;27.85;7.72;102438.66;5274960;33;35139;-87
2022/03/21 13:56:00;;;;;;;8.45;6.90;;;;;;;28.15;7.73;102434.84;5291347;33;33962;-87
2022/03/21 13:59:21;;;;;;;8.02;6.65;;;;;;;27.51;7.91;102440.34;5284154;33;34121;-87
2022/03/21 14:02:26;;;;;;;10.18;7.30;;;;;;;27.81;7.89;102424.44;5282060;33;32864;-88
2022/03/21 14:05:31;;;;;;;9.40;7.12;;;;;;;28.54;7.89;102435.91;5280959;33;33761;-88
2022/03/21 14:08:37;;;;;;;;;;;;;;;27.07;8.03;102431.53;5283912;33;32852;-88
2022/03/21 14:11:40;;;;;;;9.60;6.82;;;;;;;27.82;7.77;102419.78;5283822;33;34835;-88
2022/03/21 14:14:51;;;;;;;;;;;;;;;26.96;8.28;102429.56;5280666;33;34321;-88
2022/03/21 14:17:54;;;;;;;13.93;7.40;;;;;;;27.97;7.67;102420.09;5277704;33;35697;-87
2022/03/21 14:20:57;;;;;;;8.88;7.28;;;;;;;28.75;7.64;102419.66;5282808;33;33337;-87
2022/03/21 14:24:01;;;;;;;9.95;6.82;;;;;;;27.83;7.77;102415.06;5277178;33;34233;-87
2022/03/21 14:27:06;;;;;;;9.63;7.40;;;;;;;26.50;8.63;102417.31;5283616;33;33550;-86
2022/03/21 14:30:09;;;;;;;10.48;6.90;;;;;;;25.64;8.61;102413.69;5281974;33;34410;-87
2022/03/21 14:33:12;;;;;;;9.82;7.10;;;;;;;22.81;10.20;102412.59;5283524;33;33919;-88
2022/03/21 14:36:16;;;;;;;9.82;7.65;;;;;;;20.46;11.61;102414.28;5279969;33;33764;-87
2022/03/21 14:39:19;;;;;;;11.85;7.80;;;;;;;18.56;13.07;102413.69;5279198;33;34299;-88
2022/03/21 14:42:23;;;;;;;10.77;7.90;;;;;;;17.22;13.49;102411.78;5279063;33;34546;-88
2022/03/21 14:45:26;;;;;;;12.45;7.85;;;;;;;16.07;14.38;102406.19;5281079;33;33547;-88
2022/03/21 14:48:30;;;;;;;11.93;8.55;;;;;;;15.45;15.10;102413.66;5276252;33;34999;-88
2022/03/21 14:51:34;;;;;;;11.25;7.85;;;;;;;15.13;15.51;102407.00;5283749;33;34614;-88
2022/03/21 14:54:37;;;;;;;12.88;7.53;;;;;;;14.39;15.67;102415.41;5292030;33;34134;-88
2022/03/21 14:57:40;;;;;;;13.27;7.28;;;;;;;13.90;15.97;102412.16;5284354;33;34176;-88
2022/03/21 15:00:43;;;;;;;11.30;7.20;;;;;;;13.75;16.01;102401.81;5291956;33;35117;-87
2022/03/21 15:03:46;;;;;;;11.00;7.45;;;;;;;13.48;16.08;102405.31;5288573;33;34364;-87
2022/03/21 15:06:51;;;;;;;11.77;8.20;;;;;;;13.08;16.51;102406.37;5272727;33;34733;-87
2022/03/21 15:13:17;;;;;;;12.15;7.82;;;;;;;12.68;17.28;102403.84;5282113;33;33749;-87
2022/03/21 15:16:20;;;;;;;14.48;7.60;;;;;;;12.50;17.83;102402.84;5284164;33;34368;-88
2022/03/21 15:19:23;;;;;;;14.10;8.10;;;;;;;12.41;17.95;102407.25;5291780;33;34987;-88
2022/03/21 15:22:26;;;;;;;12.00;7.93;;;;;;;12.31;18.11;102399.09;5299947;33;33570;-87
2022/03/21 15:25:29;;;;;;;11.90;7.28;;;;;;;12.25;17.96;102387.03;5306909;33;35039;-87
2022/03/21 15:28:41;;;;;;;12.27;7.28;;;;;;;12.12;18.50;102394.53;5307369;33;34188;-87
2022/03/21 15:31:44;;;;;;;11.07;6.90;;;;;;;12.10;18.09;102383.00;5287762;33;35412;-86
2022/03/21 15:34:47;;;;;;;9.48;6.50;;;;;;;12.00;18.60;102385.69;5275972;33;34071;-87
2022/03/21 15:44:33;;;;;;;8.52;6.72;;;;;;;11.90;18.36;102390.19;5277793;33;34676;-87
2022/03/21 15:47:36;;;;;;;11.95;7.35;;;;;;;11.91;18.00;102385.66;5273492;33;34237;-86
2022/03/21 15:50:39;;;;;;;12.25;8.43;;;;;;;11.75;18.15;102378.03;5276406;33;35522;-87
2022/03/21 15:53:43;;;;;;;11.88;6.78;;;;;;;11.67;18.11;102383.25;5282696;33;34795;-87
2022/03/21 15:56:46;;;;;;;11.73;7.53;;;;;;;11.56;18.43;102386.91;5287171;33;34431;-87
2022/03/21 15:59:49;;;;;;;10.40;7.72;;;;;;;11.44;18.48;102385.31;5282961;33;33898;-87
2022/03/21 16:02:53;;;;;;;10.02;7.32;;;;;;;11.39;18.67;102390.22;5280172;33;34055;-87
2022/03/21 16:05:56;;;;;;;15.20;8.13;;;;;;;11.22;18.88;102387.16;5285976;33;34625;-86
2022/03/21 16:09:01;;;;;;;12.85;7.87;;;;;;;11.18;19.02;102384.88;5287293;33;34596;-87
2022/03/21 16:12:05;;;;;;;13.80;8.13;;;;;;;11.07;19.12;102392.03;5288974;33;35288;-87
2022/03/21 16:15:10;;;;;;;10.15;7.10;;;;;;;10.98;19.19;102391.97;5287015;33;34239;-86
2022/03/21 16:18:14;;;;;;;11.25;7.50;;;;;;;10.95;19.66;102397.62;5284300;33;35319;-87
2022/03/21 16:21:19;;;;;;;14.80;7.62;;;;;;;10.93;19.37;102395.03;5278117;33;34458;-87
2022/03/21 16:24:22;;;;;;;14.73;8.40;;;;;;;10.83;19.95;102397.66;5293430;33;35371;-87
2022/03/21 16:27:26;;;;;;;13.85;8.15;;;;;;;10.80;19.93;102395.22;5300854;33;33444;-87
2022/03/21 16:30:31;;;;;;;10.60;6.40;;;;;;;10.75;20.06;102410.06;5293767;33;34088;-87
2022/03/21 16:33:37;;;;;;;13.13;7.10;;;;;;;10.64;20.16;102406.44;5295827;33;35327;-87
2022/03/21 16:36:41;;;;;;;15.98;8.43;;;;;;;10.71;20.22;102404.09;5287482;33;34742;-85
2022/03/21 16:39:43;;;;;;;11.85;7.28;;;;;;;10.67;20.13;102398.09;5294323;33;34185;-87
2022/03/21 16:42:47;;;;;;;11.93;7.35;;;;;;;10.46;20.44;102401.75;5305154;33;34914;-87
2022/03/21 16:45:50;;;;;;;14.48;7.95;;;;;;;10.28;20.78;102398.72;5293954;33;35022;-87
2022/03/21 16:48:54;;;;;;;15.50;7.53;;;;;;;10.20;20.89;102404.69;5284688;33;34960;-86
2022/03/21 16:52:02;;;;;;;11.60;7.60;;;;;;;10.11;21.01;102394.69;5276356;33;35007;-87
2022/03/21 16:55:07;;;;;;;12.18;7.60;;;;;;;9.95;21.18;102397.78;5285637;33;34868;-87
